sensor_id;sensor_type;location;lat;lon;timestamp;P1;durP1;ratioP1;P2;durP2;ratioP2
46643;SDS011;32371;51.032;5.816;2023-02-12T00:01:50;38.47;;;16.10;;
46643;SDS011;32371;51.032;5.816;2023-02-12T00:04:15;36.38;;;14.70;;
46643;SDS011;32371;51.032;5.816;2023-02-12T00:06:41;46.03;;;17.35;;
46643;SDS011;32371;51.032;5.816;2023-02-12T00:09:06;43.63;;;16.35;;
46643;SDS011;32371;51.032;5.816;2023-02-12T00:11:31;39.13;;;16.02;;
46643;SDS011;32371;51.032;5.816;2023-02-12T00:13:57;42.72;;;16.48;;
46643;SDS011;32371;51.032;5.816;2023-02-12T00:16:24;40.90;;;16.15;;
46643;SDS011;32371;51.032;5.816;2023-02-12T00:18:52;33.83;;;15.05;;
46643;SDS011;32371;51.032;5.816;2023-02-12T00:21:18;32.70;;;14.70;;
46643;SDS011;32371;51.032;5.816;2023-02-12T00:23:43;45.22;;;14.85;;
46643;SDS011;32371;51.032;5.816;2023-02-12T00:26:11;41.05;;;16.25;;
46643;SDS011;32371;51.032;5.816;2023-02-12T00:28:37;40.00;;;15.52;;
46643;SDS011;32371;51.032;5.816;2023-02-12T00:31:10;31.42;;;14.52;;
46643;SDS011;32371;51.032;5.816;2023-02-12T00:33:37;38.90;;;15.32;;
46643;SDS011;32371;51.032;5.816;2023-02-12T00:36:02;37.13;;;16.30;;
46643;SDS011;32371;51.032;5.816;2023-02-12T00:38:28;35.58;;;14.30;;
46643;SDS011;32371;51.032;5.816;2023-02-12T00:40:53;37.72;;;15.48;;
46643;SDS011;32371;51.032;5.816;2023-02-12T00:43:19;40.40;;;14.60;;
46643;SDS011;32371;51.032;5.816;2023-02-12T00:45:45;43.72;;;15.38;;
46643;SDS011;32371;51.032;5.816;2023-02-12T00:48:11;43.55;;;16.52;;
46643;SDS011;32371;51.032;5.816;2023-02-12T00:50:36;31.90;;;14.35;;
46643;SDS011;32371;51.032;5.816;2023-02-12T00:53:02;32.90;;;14.05;;
46643;SDS011;32371;51.032;5.816;2023-02-12T00:55:27;42.92;;;13.68;;
46643;SDS011;32371;51.032;5.816;2023-02-12T00:57:52;30.63;;;12.85;;
46643;SDS011;32371;51.032;5.816;2023-02-12T01:00:18;28.30;;;12.40;;
46643;SDS011;32371;51.032;5.816;2023-02-12T01:02:43;35.50;;;14.70;;
46643;SDS011;32371;51.032;5.816;2023-02-12T01:05:09;39.03;;;15.75;;
46643;SDS011;32371;51.032;5.816;2023-02-12T01:07:34;35.30;;;14.77;;
46643;SDS011;32371;51.032;5.816;2023-02-12T01:10:00;32.13;;;15.82;;
46643;SDS011;32371;51.032;5.816;2023-02-12T01:12:25;37.50;;;14.50;;
46643;SDS011;32371;51.032;5.816;2023-02-12T01:14:51;28.25;;;12.93;;
46643;SDS011;32371;51.032;5.816;2023-02-12T01:17:16;32.03;;;13.25;;
46643;SDS011;32371;51.032;5.816;2023-02-12T01:19:41;35.03;;;13.70;;
46643;SDS011;32371;51.032;5.816;2023-02-12T01:22:07;36.33;;;13.40;;
46643;SDS011;32371;51.032;5.816;2023-02-12T01:24:32;37.03;;;12.95;;
46643;SDS011;32371;51.032;5.816;2023-02-12T01:26:58;36.60;;;13.13;;
46643;SDS011;32371;51.032;5.816;2023-02-12T01:29:23;33.70;;;14.00;;
46643;SDS011;32371;51.032;5.816;2023-02-12T01:31:48;41.60;;;14.70;;
46643;SDS011;32371;51.032;5.816;2023-02-12T01:34:14;32.13;;;13.25;;
46643;SDS011;32371;51.032;5.816;2023-02-12T01:36:39;37.17;;;14.30;;
46643;SDS011;32371;51.032;5.816;2023-02-12T01:39:05;36.92;;;16.70;;
46643;SDS011;32371;51.032;5.816;2023-02-12T01:41:31;36.45;;;14.40;;
46643;SDS011;32371;51.032;5.816;2023-02-12T01:44:21;43.45;;;15.23;;
46643;SDS011;32371;51.032;5.816;2023-02-12T01:46:48;36.42;;;14.70;;
46643;SDS011;32371;51.032;5.816;2023-02-12T01:51:51;35.55;;;14.82;;
46643;SDS011;32371;51.032;5.816;2023-02-12T01:54:18;36.03;;;13.98;;
46643;SDS011;32371;51.032;5.816;2023-02-12T01:56:44;38.40;;;14.02;;
46643;SDS011;32371;51.032;5.816;2023-02-12T01:59:10;36.40;;;15.23;;
46643;SDS011;32371;51.032;5.816;2023-02-12T02:01:37;36.35;;;13.65;;
46643;SDS011;32371;51.032;5.816;2023-02-12T02:04:07;36.05;;;14.70;;
46643;SDS011;32371;51.032;5.816;2023-02-12T02:06:49;36.92;;;13.70;;
46643;SDS011;32371;51.032;5.816;2023-02-12T02:09:18;37.55;;;14.25;;
46643;SDS011;32371;51.032;5.816;2023-02-12T02:11:44;29.85;;;13.00;;
46643;SDS011;32371;51.032;5.816;2023-02-12T02:14:28;31.80;;;13.13;;
46643;SDS011;32371;51.032;5.816;2023-02-12T02:19:32;41.92;;;15.20;;
46643;SDS011;32371;51.032;5.816;2023-02-12T02:22:16;32.35;;;14.07;;
46643;SDS011;32371;51.032;5.816;2023-02-12T02:25:04;42.58;;;14.32;;
46643;SDS011;32371;51.032;5.816;2023-02-12T02:34:12;39.20;;;14.10;;
46643;SDS011;32371;51.032;5.816;2023-02-12T02:36:46;33.78;;;14.18;;
46643;SDS011;32371;51.032;5.816;2023-02-12T02:44:49;34.83;;;14.10;;
46643;SDS011;32371;51.032;5.816;2023-02-12T02:47:18;34.60;;;12.95;;
46643;SDS011;32371;51.032;5.816;2023-02-12T02:50:05;43.70;;;14.35;;
46643;SDS011;32371;51.032;5.816;2023-02-12T02:53:07;34.03;;;12.98;;
46643;SDS011;32371;51.032;5.816;2023-02-12T02:55:27;35.90;;;13.63;;
46643;SDS011;32371;51.032;5.816;2023-02-12T02:57:57;39.15;;;15.65;;
46643;SDS011;32371;51.032;5.816;2023-02-12T03:00:34;41.47;;;14.57;;
46643;SDS011;32371;51.032;5.816;2023-02-12T03:03:15;30.05;;;14.15;;
46643;SDS011;32371;51.032;5.816;2023-02-12T03:05:46;35.13;;;14.67;;
46643;SDS011;32371;51.032;5.816;2023-02-12T03:08:15;37.38;;;14.88;;
46643;SDS011;32371;51.032;5.816;2023-02-12T03:10:49;33.58;;;13.73;;
46643;SDS011;32371;51.032;5.816;2023-02-12T03:13:20;34.78;;;13.07;;
46643;SDS011;32371;51.032;5.816;2023-02-12T03:16:06;33.10;;;13.95;;
46643;SDS011;32371;51.032;5.816;2023-02-12T03:18:35;47.65;;;15.27;;
46643;SDS011;32371;51.032;5.816;2023-02-12T03:21:08;40.95;;;15.32;;
46643;SDS011;32371;51.032;5.816;2023-02-12T03:23:38;38.60;;;14.88;;
46643;SDS011;32371;51.032;5.816;2023-02-12T03:26:09;40.38;;;16.00;;
46643;SDS011;32371;51.032;5.816;2023-02-12T03:28:46;34.45;;;15.00;;
46643;SDS011;32371;51.032;5.816;2023-02-12T03:31:16;41.05;;;15.68;;
46643;SDS011;32371;51.032;5.816;2023-02-12T03:36:48;34.63;;;13.77;;
46643;SDS011;32371;51.032;5.816;2023-02-12T03:42:05;40.65;;;14.73;;
46643;SDS011;32371;51.032;5.816;2023-02-12T03:47:18;36.40;;;14.10;;
46643;SDS011;32371;51.032;5.816;2023-02-12T03:50:09;34.40;;;13.30;;
46643;SDS011;32371;51.032;5.816;2023-02-12T03:52:51;37.47;;;13.55;;
46643;SDS011;32371;51.032;5.816;2023-02-12T03:55:17;30.52;;;13.85;;
46643;SDS011;32371;51.032;5.816;2023-02-12T03:57:44;45.13;;;17.60;;
46643;SDS011;32371;51.032;5.816;2023-02-12T04:00:15;45.42;;;18.83;;
46643;SDS011;32371;51.032;5.816;2023-02-12T04:02:42;45.75;;;17.83;;
46643;SDS011;32371;51.032;5.816;2023-02-12T04:05:15;37.25;;;15.68;;
46643;SDS011;32371;51.032;5.816;2023-02-12T04:07:48;46.45;;;16.38;;
46643;SDS011;32371;51.032;5.816;2023-02-12T04:10:13;43.25;;;16.17;;
46643;SDS011;32371;51.032;5.816;2023-02-12T04:12:42;41.83;;;15.20;;
46643;SDS011;32371;51.032;5.816;2023-02-12T04:15:31;42.25;;;16.25;;
46643;SDS011;32371;51.032;5.816;2023-02-12T04:26:16;41.47;;;16.38;;
46643;SDS011;32371;51.032;5.816;2023-02-12T04:31:49;43.25;;;15.40;;
46643;SDS011;32371;51.032;5.816;2023-02-12T04:36:55;48.03;;;16.77;;
46643;SDS011;32371;51.032;5.816;2023-02-12T04:39:27;41.05;;;15.85;;
46643;SDS011;32371;51.032;5.816;2023-02-12T04:41:56;35.08;;;14.70;;
46643;SDS011;32371;51.032;5.816;2023-02-12T04:44:25;39.08;;;14.60;;
46643;SDS011;32371;51.032;5.816;2023-02-12T04:46:51;41.90;;;14.45;;
46643;SDS011;32371;51.032;5.816;2023-02-12T04:49:18;39.08;;;15.05;;
46643;SDS011;32371;51.032;5.816;2023-02-12T04:51:44;38.80;;;15.80;;
46643;SDS011;32371;51.032;5.816;2023-02-12T04:54:10;38.78;;;14.77;;
46643;SDS011;32371;51.032;5.816;2023-02-12T04:56:36;42.80;;;15.88;;
46643;SDS011;32371;51.032;5.816;2023-02-12T04:59:01;39.60;;;14.90;;
46643;SDS011;32371;51.032;5.816;2023-02-12T05:01:26;37.40;;;15.05;;
46643;SDS011;32371;51.032;5.816;2023-02-12T05:03:52;45.03;;;14.77;;
46643;SDS011;32371;51.032;5.816;2023-02-12T05:06:18;37.42;;;15.20;;
46643;SDS011;32371;51.032;5.816;2023-02-12T05:08:43;43.00;;;16.70;;
46643;SDS011;32371;51.032;5.816;2023-02-12T05:11:09;47.17;;;17.80;;
46643;SDS011;32371;51.032;5.816;2023-02-12T05:13:35;40.45;;;14.85;;
46643;SDS011;32371;51.032;5.816;2023-02-12T05:16:04;41.75;;;16.88;;
46643;SDS011;32371;51.032;5.816;2023-02-12T05:18:30;45.30;;;16.90;;
46643;SDS011;32371;51.032;5.816;2023-02-12T05:20:56;43.63;;;16.80;;
46643;SDS011;32371;51.032;5.816;2023-02-12T05:23:26;41.58;;;14.48;;
46643;SDS011;32371;51.032;5.816;2023-02-12T05:25:53;45.67;;;16.40;;
46643;SDS011;32371;51.032;5.816;2023-02-12T05:28:19;42.63;;;16.13;;
46643;SDS011;32371;51.032;5.816;2023-02-12T05:30:44;38.42;;;15.75;;
46643;SDS011;32371;51.032;5.816;2023-02-12T05:33:09;50.60;;;15.55;;
46643;SDS011;32371;51.032;5.816;2023-02-12T05:35:35;40.22;;;15.40;;
46643;SDS011;32371;51.032;5.816;2023-02-12T05:38:00;36.50;;;16.05;;
46643;SDS011;32371;51.032;5.816;2023-02-12T05:40:25;35.88;;;16.02;;
46643;SDS011;32371;51.032;5.816;2023-02-12T05:42:51;51.17;;;16.98;;
46643;SDS011;32371;51.032;5.816;2023-02-12T05:45:17;42.00;;;15.40;;
46643;SDS011;32371;51.032;5.816;2023-02-12T05:47:42;39.38;;;15.63;;
46643;SDS011;32371;51.032;5.816;2023-02-12T05:50:07;39.08;;;14.27;;
46643;SDS011;32371;51.032;5.816;2023-02-12T05:52:33;40.50;;;16.05;;
46643;SDS011;32371;51.032;5.816;2023-02-12T05:54:59;38.47;;;14.52;;
46643;SDS011;32371;51.032;5.816;2023-02-12T05:57:24;38.90;;;15.20;;
46643;SDS011;32371;51.032;5.816;2023-02-12T05:59:49;38.63;;;16.17;;
46643;SDS011;32371;51.032;5.816;2023-02-12T06:02:15;38.67;;;14.75;;
46643;SDS011;32371;51.032;5.816;2023-02-12T06:04:40;43.78;;;15.73;;
46643;SDS011;32371;51.032;5.816;2023-02-12T06:07:05;42.72;;;17.63;;
46643;SDS011;32371;51.032;5.816;2023-02-12T06:09:34;47.38;;;17.45;;
46643;SDS011;32371;51.032;5.816;2023-02-12T06:12:00;40.30;;;16.38;;
46643;SDS011;32371;51.032;5.816;2023-02-12T06:14:25;43.83;;;15.77;;
46643;SDS011;32371;51.032;5.816;2023-02-12T06:16:51;43.13;;;14.48;;
46643;SDS011;32371;51.032;5.816;2023-02-12T06:19:17;42.00;;;15.70;;
46643;SDS011;32371;51.032;5.816;2023-02-12T06:21:43;33.22;;;14.52;;
46643;SDS011;32371;51.032;5.816;2023-02-12T06:24:12;31.50;;;13.35;;
46643;SDS011;32371;51.032;5.816;2023-02-12T06:26:39;36.80;;;14.40;;
46643;SDS011;32371;51.032;5.816;2023-02-12T06:29:04;35.08;;;13.73;;
46643;SDS011;32371;51.032;5.816;2023-02-12T06:31:34;35.45;;;13.88;;
46643;SDS011;32371;51.032;5.816;2023-02-12T06:34:01;36.90;;;15.75;;
46643;SDS011;32371;51.032;5.816;2023-02-12T06:36:28;42.08;;;16.90;;
46643;SDS011;32371;51.032;5.816;2023-02-12T06:38:53;45.63;;;16.33;;
46643;SDS011;32371;51.032;5.816;2023-02-12T06:41:19;35.42;;;14.82;;
46643;SDS011;32371;51.032;5.816;2023-02-12T06:43:45;43.78;;;16.73;;
46643;SDS011;32371;51.032;5.816;2023-02-12T06:46:11;44.15;;;15.70;;
46643;SDS011;32371;51.032;5.816;2023-02-12T06:48:37;42.30;;;17.58;;
46643;SDS011;32371;51.032;5.816;2023-02-12T06:51:03;48.17;;;18.58;;
46643;SDS011;32371;51.032;5.816;2023-02-12T06:53:33;42.47;;;15.85;;
46643;SDS011;32371;51.032;5.816;2023-02-12T06:55:59;37.58;;;15.02;;
46643;SDS011;32371;51.032;5.816;2023-02-12T06:58:28;38.97;;;15.05;;
46643;SDS011;32371;51.032;5.816;2023-02-12T07:00:54;39.30;;;15.32;;
46643;SDS011;32371;51.032;5.816;2023-02-12T07:03:19;34.72;;;15.35;;
46643;SDS011;32371;51.032;5.816;2023-02-12T07:05:45;40.47;;;15.20;;
46643;SDS011;32371;51.032;5.816;2023-02-12T07:08:12;42.65;;;15.40;;
46643;SDS011;32371;51.032;5.816;2023-02-12T07:10:37;40.65;;;15.68;;
46643;SDS011;32371;51.032;5.816;2023-02-12T07:13:03;45.53;;;16.27;;
46643;SDS011;32371;51.032;5.816;2023-02-12T07:15:29;34.03;;;14.77;;
46643;SDS011;32371;51.032;5.816;2023-02-12T07:17:54;45.40;;;16.92;;
46643;SDS011;32371;51.032;5.816;2023-02-12T07:20:19;38.42;;;17.27;;
46643;SDS011;32371;51.032;5.816;2023-02-12T07:22:45;36.47;;;14.35;;
46643;SDS011;32371;51.032;5.816;2023-02-12T07:25:10;44.38;;;15.00;;
46643;SDS011;32371;51.032;5.816;2023-02-12T07:27:36;43.10;;;16.02;;
46643;SDS011;32371;51.032;5.816;2023-02-12T07:30:02;41.00;;;15.55;;
46643;SDS011;32371;51.032;5.816;2023-02-12T07:32:30;44.65;;;14.95;;
46643;SDS011;32371;51.032;5.816;2023-02-12T07:34:56;35.63;;;15.27;;
46643;SDS011;32371;51.032;5.816;2023-02-12T07:37:21;41.08;;;15.20;;
46643;SDS011;32371;51.032;5.816;2023-02-12T07:39:47;39.50;;;15.82;;
46643;SDS011;32371;51.032;5.816;2023-02-12T07:42:13;37.70;;;14.52;;
46643;SDS011;32371;51.032;5.816;2023-02-12T07:44:39;40.55;;;15.38;;
46643;SDS011;32371;51.032;5.816;2023-02-12T07:47:04;44.30;;;15.90;;
46643;SDS011;32371;51.032;5.816;2023-02-12T07:49:30;44.97;;;16.35;;
46643;SDS011;32371;51.032;5.816;2023-02-12T07:51:55;38.45;;;15.88;;
46643;SDS011;32371;51.032;5.816;2023-02-12T07:54:21;34.67;;;14.80;;
46643;SDS011;32371;51.032;5.816;2023-02-12T07:56:46;40.65;;;15.80;;
46643;SDS011;32371;51.032;5.816;2023-02-12T07:59:13;45.80;;;16.65;;
46643;SDS011;32371;51.032;5.816;2023-02-12T08:01:41;40.90;;;15.35;;
46643;SDS011;32371;51.032;5.816;2023-02-12T08:04:11;44.85;;;16.38;;
46643;SDS011;32371;51.032;5.816;2023-02-12T08:06:39;46.50;;;16.67;;
46643;SDS011;32371;51.032;5.816;2023-02-12T08:09:06;44.35;;;16.48;;
46643;SDS011;32371;51.032;5.816;2023-02-12T08:11:34;49.72;;;17.85;;
46643;SDS011;32371;51.032;5.816;2023-02-12T08:14:00;43.35;;;17.30;;
46643;SDS011;32371;51.032;5.816;2023-02-12T08:16:27;47.60;;;16.35;;
46643;SDS011;32371;51.032;5.816;2023-02-12T08:18:53;43.97;;;16.25;;
46643;SDS011;32371;51.032;5.816;2023-02-12T08:21:20;46.22;;;18.70;;
46643;SDS011;32371;51.032;5.816;2023-02-12T08:23:46;56.20;;;19.08;;
46643;SDS011;32371;51.032;5.816;2023-02-12T08:28:46;49.17;;;19.92;;
46643;SDS011;32371;51.032;5.816;2023-02-12T08:31:15;47.95;;;18.10;;
46643;SDS011;32371;51.032;5.816;2023-02-12T08:33:44;48.08;;;17.17;;
46643;SDS011;32371;51.032;5.816;2023-02-12T08:36:11;44.00;;;18.95;;
46643;SDS011;32371;51.032;5.816;2023-02-12T08:38:39;43.30;;;18.52;;
46643;SDS011;32371;51.032;5.816;2023-02-12T08:41:06;45.83;;;17.15;;
46643;SDS011;32371;51.032;5.816;2023-02-12T08:43:33;52.10;;;19.23;;
46643;SDS011;32371;51.032;5.816;2023-02-12T08:46:06;57.85;;;21.58;;
46643;SDS011;32371;51.032;5.816;2023-02-12T08:48:33;55.85;;;17.88;;
46643;SDS011;32371;51.032;5.816;2023-02-12T08:51:06;50.78;;;20.10;;
46643;SDS011;32371;51.032;5.816;2023-02-12T08:53:33;56.08;;;20.30;;
46643;SDS011;32371;51.032;5.816;2023-02-12T08:55:59;55.20;;;21.17;;
46643;SDS011;32371;51.032;5.816;2023-02-12T08:58:24;38.42;;;17.58;;
46643;SDS011;32371;51.032;5.816;2023-02-12T09:00:50;50.35;;;19.65;;
46643;SDS011;32371;51.032;5.816;2023-02-12T09:03:15;50.03;;;20.52;;
46643;SDS011;32371;51.032;5.816;2023-02-12T09:05:41;48.08;;;19.55;;
46643;SDS011;32371;51.032;5.816;2023-02-12T09:08:06;54.22;;;19.02;;
46643;SDS011;32371;51.032;5.816;2023-02-12T09:10:32;55.28;;;21.02;;
46643;SDS011;32371;51.032;5.816;2023-02-12T09:12:58;51.13;;;20.25;;
46643;SDS011;32371;51.032;5.816;2023-02-12T09:15:24;56.30;;;20.15;;
46643;SDS011;32371;51.032;5.816;2023-02-12T09:17:49;52.50;;;21.15;;
46643;SDS011;32371;51.032;5.816;2023-02-12T09:20:14;47.47;;;19.83;;
46643;SDS011;32371;51.032;5.816;2023-02-12T09:22:40;54.95;;;20.05;;
46643;SDS011;32371;51.032;5.816;2023-02-12T09:25:05;51.58;;;20.80;;
46643;SDS011;32371;51.032;5.816;2023-02-12T09:27:30;51.15;;;21.48;;
46643;SDS011;32371;51.032;5.816;2023-02-12T09:29:56;48.45;;;18.80;;
46643;SDS011;32371;51.032;5.816;2023-02-12T09:32:21;49.97;;;19.25;;
46643;SDS011;32371;51.032;5.816;2023-02-12T09:34:47;52.80;;;21.08;;
46643;SDS011;32371;51.032;5.816;2023-02-12T09:37:12;49.40;;;19.70;;
46643;SDS011;32371;51.032;5.816;2023-02-12T09:39:38;45.67;;;18.42;;
46643;SDS011;32371;51.032;5.816;2023-02-12T09:45:15;52.40;;;21.80;;
46643;SDS011;32371;51.032;5.816;2023-02-12T09:52:52;50.75;;;21.02;;
46643;SDS011;32371;51.032;5.816;2023-02-12T09:55:20;58.33;;;20.13;;
46643;SDS011;32371;51.032;5.816;2023-02-12T09:57:46;50.70;;;18.60;;
46643;SDS011;32371;51.032;5.816;2023-02-12T10:00:17;48.42;;;20.25;;
46643;SDS011;32371;51.032;5.816;2023-02-12T10:02:45;45.65;;;19.35;;
46643;SDS011;32371;51.032;5.816;2023-02-12T10:05:19;62.40;;;24.15;;
46643;SDS011;32371;51.032;5.816;2023-02-12T10:13:19;49.92;;;20.73;;
46643;SDS011;32371;51.032;5.816;2023-02-12T10:16:01;48.72;;;20.02;;
46643;SDS011;32371;51.032;5.816;2023-02-12T10:23:59;48.47;;;18.83;;
46643;SDS011;32371;51.032;5.816;2023-02-12T10:26:43;50.28;;;20.38;;
46643;SDS011;32371;51.032;5.816;2023-02-12T10:29:17;48.85;;;18.45;;
46643;SDS011;32371;51.032;5.816;2023-02-12T10:31:47;46.30;;;20.93;;
46643;SDS011;32371;51.032;5.816;2023-02-12T10:34:19;40.80;;;18.80;;
46643;SDS011;32371;51.032;5.816;2023-02-12T10:36:49;51.03;;;20.92;;
46643;SDS011;32371;51.032;5.816;2023-02-12T10:39:30;49.25;;;20.13;;
46643;SDS011;32371;51.032;5.816;2023-02-12T10:42:01;47.38;;;19.63;;
46643;SDS011;32371;51.032;5.816;2023-02-12T10:44:29;51.80;;;19.77;;
46643;SDS011;32371;51.032;5.816;2023-02-12T10:46:55;47.92;;;19.42;;
46643;SDS011;32371;51.032;5.816;2023-02-12T10:49:20;57.30;;;21.67;;
46643;SDS011;32371;51.032;5.816;2023-02-12T10:54:30;49.83;;;18.65;;
46643;SDS011;32371;51.032;5.816;2023-02-12T10:56:56;51.70;;;20.52;;
46643;SDS011;32371;51.032;5.816;2023-02-12T10:59:22;44.92;;;20.60;;
46643;SDS011;32371;51.032;5.816;2023-02-12T11:01:48;47.33;;;19.42;;
46643;SDS011;32371;51.032;5.816;2023-02-12T11:04:24;45.72;;;19.30;;
46643;SDS011;32371;51.032;5.816;2023-02-12T11:07:09;49.70;;;19.48;;
46643;SDS011;32371;51.032;5.816;2023-02-12T11:09:38;47.85;;;20.63;;
46643;SDS011;32371;51.032;5.816;2023-02-12T11:15:16;48.33;;;18.80;;
46643;SDS011;32371;51.032;5.816;2023-02-12T11:17:45;42.42;;;17.67;;
46643;SDS011;32371;51.032;5.816;2023-02-12T11:25:14;49.35;;;19.23;;
46643;SDS011;32371;51.032;5.816;2023-02-12T11:27:40;50.25;;;20.58;;
46643;SDS011;32371;51.032;5.816;2023-02-12T11:32:35;42.72;;;19.58;;
46643;SDS011;32371;51.032;5.816;2023-02-12T11:35:05;44.42;;;20.02;;
46643;SDS011;32371;51.032;5.816;2023-02-12T11:37:42;50.38;;;20.77;;
46643;SDS011;32371;51.032;5.816;2023-02-12T11:42:54;43.00;;;19.02;;
46643;SDS011;32371;51.032;5.816;2023-02-12T11:45:21;50.15;;;20.08;;
46643;SDS011;32371;51.032;5.816;2023-02-12T11:47:54;45.83;;;19.40;;
46643;SDS011;32371;51.032;5.816;2023-02-12T11:50:27;51.75;;;20.58;;
46643;SDS011;32371;51.032;5.816;2023-02-12T11:53:05;54.05;;;21.02;;
46643;SDS011;32371;51.032;5.816;2023-02-12T11:55:37;47.63;;;18.80;;
46643;SDS011;32371;51.032;5.816;2023-02-12T11:58:13;46.35;;;19.45;;
46643;SDS011;32371;51.032;5.816;2023-02-12T12:00:48;53.88;;;20.38;;
46643;SDS011;32371;51.032;5.816;2023-02-12T12:06:43;52.55;;;20.85;;
46643;SDS011;32371;51.032;5.816;2023-02-12T12:09:19;52.33;;;20.73;;
46643;SDS011;32371;51.032;5.816;2023-02-12T12:14:35;45.63;;;18.58;;
46643;SDS011;32371;51.032;5.816;2023-02-12T12:20:22;47.60;;;18.55;;
46643;SDS011;32371;51.032;5.816;2023-02-12T12:22:56;41.60;;;16.42;;
46643;SDS011;32371;51.032;5.816;2023-02-12T12:46:09;43.72;;;16.35;;
46643;SDS011;32371;51.032;5.816;2023-02-12T12:49:05;39.65;;;15.70;;
46643;SDS011;32371;51.032;5.816;2023-02-12T12:51:41;41.67;;;16.83;;
46643;SDS011;32371;51.032;5.816;2023-02-12T13:11:07;36.15;;;15.32;;
46643;SDS011;32371;51.032;5.816;2023-02-12T13:13:38;41.45;;;16.65;;
46643;SDS011;32371;51.032;5.816;2023-02-12T13:21:17;36.67;;;15.63;;
46643;SDS011;32371;51.032;5.816;2023-02-12T13:23:52;36.40;;;17.63;;
46643;SDS011;32371;51.032;5.816;2023-02-12T13:29:07;36.63;;;16.80;;
46643;SDS011;32371;51.032;5.816;2023-02-12T13:31:42;41.50;;;16.60;;
46643;SDS011;32371;51.032;5.816;2023-02-12T13:34:12;42.35;;;17.65;;
46643;SDS011;32371;51.032;5.816;2023-02-12T13:36:39;38.80;;;16.15;;
46643;SDS011;32371;51.032;5.816;2023-02-12T13:39:08;36.67;;;15.70;;
46643;SDS011;32371;51.032;5.816;2023-02-12T13:41:39;37.08;;;17.95;;
46643;SDS011;32371;51.032;5.816;2023-02-12T13:44:15;38.28;;;15.95;;
46643;SDS011;32371;51.032;5.816;2023-02-12T13:57:36;41.92;;;16.85;;
46643;SDS011;32371;51.032;5.816;2023-02-12T14:00:02;34.65;;;15.73;;
46643;SDS011;32371;51.032;5.816;2023-02-12T14:07:45;45.75;;;17.10;;
46643;SDS011;32371;51.032;5.816;2023-02-12T14:12:46;36.95;;;16.23;;
46643;SDS011;32371;51.032;5.816;2023-02-12T14:17:54;38.63;;;16.23;;
46643;SDS011;32371;51.032;5.816;2023-02-12T14:22:58;37.92;;;16.02;;
46643;SDS011;32371;51.032;5.816;2023-02-12T14:25:28;38.78;;;18.33;;
46643;SDS011;32371;51.032;5.816;2023-02-12T14:28:19;46.33;;;16.55;;
46643;SDS011;32371;51.032;5.816;2023-02-12T14:31:17;42.25;;;16.08;;
46643;SDS011;32371;51.032;5.816;2023-02-12T14:33:42;38.55;;;15.98;;
46643;SDS011;32371;51.032;5.816;2023-02-12T14:36:41;36.42;;;15.73;;
46643;SDS011;32371;51.032;5.816;2023-02-12T14:41:44;45.67;;;17.80;;
46643;SDS011;32371;51.032;5.816;2023-02-12T14:49:24;39.47;;;16.58;;
46643;SDS011;32371;51.032;5.816;2023-02-12T14:57:05;41.65;;;16.08;;
46643;SDS011;32371;51.032;5.816;2023-02-12T14:59:35;43.58;;;18.02;;
46643;SDS011;32371;51.032;5.816;2023-02-12T15:02:04;48.72;;;20.27;;
46643;SDS011;32371;51.032;5.816;2023-02-12T15:04:31;40.65;;;17.75;;
46643;SDS011;32371;51.032;5.816;2023-02-12T15:07:04;44.80;;;18.23;;
46643;SDS011;32371;51.032;5.816;2023-02-12T15:12:36;45.65;;;18.50;;
46643;SDS011;32371;51.032;5.816;2023-02-12T15:20:43;47.85;;;18.98;;
46643;SDS011;32371;51.032;5.816;2023-02-12T15:23:29;38.50;;;17.75;;
46643;SDS011;32371;51.032;5.816;2023-02-12T15:25:57;46.15;;;18.58;;
46643;SDS011;32371;51.032;5.816;2023-02-12T15:28:24;51.10;;;20.67;;
46643;SDS011;32371;51.032;5.816;2023-02-12T15:30:57;54.00;;;18.25;;
46643;SDS011;32371;51.032;5.816;2023-02-12T15:33:27;49.20;;;18.85;;
46643;SDS011;32371;51.032;5.816;2023-02-12T15:35:54;46.05;;;17.67;;
46643;SDS011;32371;51.032;5.816;2023-02-12T15:38:31;45.90;;;18.50;;
46643;SDS011;32371;51.032;5.816;2023-02-12T15:40:59;45.90;;;18.17;;
46643;SDS011;32371;51.032;5.816;2023-02-12T15:43:26;41.75;;;18.50;;
46643;SDS011;32371;51.032;5.816;2023-02-12T15:45:59;47.00;;;18.30;;
46643;SDS011;32371;51.032;5.816;2023-02-12T15:48:43;49.80;;;19.10;;
46643;SDS011;32371;51.032;5.816;2023-02-12T15:53:34;47.47;;;17.30;;
46643;SDS011;32371;51.032;5.816;2023-02-12T15:56:00;50.78;;;17.98;;
46643;SDS011;32371;51.032;5.816;2023-02-12T15:58:27;48.85;;;16.77;;
46643;SDS011;32371;51.032;5.816;2023-02-12T16:01:01;51.92;;;18.98;;
46643;SDS011;32371;51.032;5.816;2023-02-12T16:03:30;42.78;;;18.50;;
46643;SDS011;32371;51.032;5.816;2023-02-12T16:05:59;47.78;;;19.50;;
46643;SDS011;32371;51.032;5.816;2023-02-12T16:08:26;56.17;;;18.67;;
46643;SDS011;32371;51.032;5.816;2023-02-12T16:10:52;60.00;;;19.92;;
46643;SDS011;32371;51.032;5.816;2023-02-12T16:13:51;50.90;;;17.50;;
46643;SDS011;32371;51.032;5.816;2023-02-12T16:18:38;45.85;;;17.52;;
46643;SDS011;32371;51.032;5.816;2023-02-12T16:21:15;53.28;;;19.25;;
46643;SDS011;32371;51.032;5.816;2023-02-12T16:23:42;55.95;;;18.40;;
46643;SDS011;32371;51.032;5.816;2023-02-12T16:26:14;52.97;;;19.77;;
46643;SDS011;32371;51.032;5.816;2023-02-12T16:28:48;53.65;;;18.25;;
46643;SDS011;32371;51.032;5.816;2023-02-12T16:31:15;51.08;;;19.73;;
46643;SDS011;32371;51.032;5.816;2023-02-12T16:33:42;43.80;;;18.38;;
46643;SDS011;32371;51.032;5.816;2023-02-12T16:38:54;49.53;;;19.15;;
46643;SDS011;32371;51.032;5.816;2023-02-12T16:46:29;47.00;;;18.65;;
46643;SDS011;32371;51.032;5.816;2023-02-12T16:48:57;53.25;;;17.92;;
46643;SDS011;32371;51.032;5.816;2023-02-12T16:51:34;50.72;;;18.33;;
46643;SDS011;32371;51.032;5.816;2023-02-12T16:54:01;48.70;;;18.00;;
46643;SDS011;32371;51.032;5.816;2023-02-12T16:56:30;45.90;;;18.60;;
46643;SDS011;32371;51.032;5.816;2023-02-12T16:58:58;46.53;;;16.65;;
46643;SDS011;32371;51.032;5.816;2023-02-12T17:06:25;52.15;;;17.08;;
46643;SDS011;32371;51.032;5.816;2023-02-12T17:08:52;48.60;;;18.73;;
46643;SDS011;32371;51.032;5.816;2023-02-12T17:11:17;42.92;;;17.27;;
46643;SDS011;32371;51.032;5.816;2023-02-12T17:13:47;46.65;;;17.83;;
46643;SDS011;32371;51.032;5.816;2023-02-12T17:16:13;49.72;;;17.10;;
46643;SDS011;32371;51.032;5.816;2023-02-12T17:18:39;45.70;;;17.05;;
46643;SDS011;32371;51.032;5.816;2023-02-12T17:21:06;43.65;;;17.63;;
46643;SDS011;32371;51.032;5.816;2023-02-12T17:23:35;43.03;;;18.25;;
46643;SDS011;32371;51.032;5.816;2023-02-12T17:26:01;52.17;;;18.98;;
46643;SDS011;32371;51.032;5.816;2023-02-12T17:28:26;43.80;;;17.65;;
46643;SDS011;32371;51.032;5.816;2023-02-12T17:30:51;40.85;;;15.70;;
46643;SDS011;32371;51.032;5.816;2023-02-12T17:33:17;46.58;;;17.00;;
46643;SDS011;32371;51.032;5.816;2023-02-12T17:35:43;41.88;;;17.25;;
46643;SDS011;32371;51.032;5.816;2023-02-12T17:38:09;44.30;;;16.42;;
46643;SDS011;32371;51.032;5.816;2023-02-12T17:40:35;46.80;;;17.38;;
46643;SDS011;32371;51.032;5.816;2023-02-12T17:43:01;45.75;;;17.20;;
46643;SDS011;32371;51.032;5.816;2023-02-12T17:45:28;49.67;;;17.20;;
46643;SDS011;32371;51.032;5.816;2023-02-12T17:47:53;50.00;;;17.88;;